Horsholm, Denmark
Current Conditions -  °F | °C
As of 3:50 PM on Thursday 23 Oct 2014 (Local Time) from EKCH Reporting Station
Broken Clouds Broken Clouds  
Wind Chill: 11°   Ceiling: 2000
Heat Index: 11°   Visibility: 6mi
Dew Point:   Wind: 14mph
Humidity: 82%   Direction: 120°ESE
Pressure: 30.18"   Gusts: NA
Location:  55.88°N, 12.5°E
Report Text: EKCH 231350Z 12012KT 9999 BKN020 11/08 Q1022 NOSIG
Loading
Personal Weather Stations






























Interactive Weather Map
Tropical Storm Tracking
New forecast layout! Learn more

10-Day Weather Forecast

Advertisements
Track Severe Weather on mobile